Time;durP1;ratioP1;P1;durP2;ratioP2;P2;SDS_P1;SDS_P2;PMS_P1;PMS_P2;Temp;Humidity;BMP_temperature;BMP_pressure;BME280_temperature;BME280_humidity;BME280_pressure;Samples;Min_cycle;Max_cycle;Signal;HPM_P1;HPM_P2
2021/03/03 00:00:55;;;;;;;;;;;16.40;62.40;;;;;;5013583;28;19952;-74
2021/03/03 00:03:20;;;;;;;;;;;16.40;62.40;;;;;;5028250;28;19921;-73
2021/03/03 00:05:46;;;;;;;;;;;16.30;62.40;;;;;;5010604;28;19921;-73
2021/03/03 00:08:11;;;;;;;;;;;16.40;62.40;;;;;;5028356;28;19967;-73
2021/03/03 00:10:37;;;;;;;;;;;16.40;62.40;;;;;;5028654;28;20338;-73
2021/03/03 00:13:03;;;;;;;;;;;16.40;62.40;;;;;;5027977;28;19924;-74
2021/03/03 00:15:28;;;;;;;;;;;16.40;62.40;;;;;;5029286;28;20425;-73
2021/03/03 00:17:54;;;;;;;;;;;16.30;62.40;;;;;;5012839;28;19953;-74
2021/03/03 00:20:19;;;;;;;;;;;16.30;62.40;;;;;;5028045;28;20031;-74
2021/03/03 00:22:45;;;;;;;;;;;16.30;62.40;;;;;;5027588;28;19974;-73
2021/03/03 00:25:10;;;;;;;;;;;16.40;62.50;;;;;;5027560;28;20650;-74
2021/03/03 00:27:36;;;;;;;;;;;16.30;62.50;;;;;;5027493;28;20010;-73
2021/03/03 00:30:02;;;;;;;;;;;16.30;62.50;;;;;;5028266;28;20331;-73
2021/03/03 00:32:27;;;;;;;;;;;16.30;62.50;;;;;;5049307;28;19916;-74
2021/03/03 00:34:53;;;;;;;;;;;16.30;62.50;;;;;;5031800;28;19923;-73
2021/03/03 00:37:19;;;;;;;;;;;16.30;62.50;;;;;;5046074;28;19935;-74
2021/03/03 00:39:44;;;;;;;;;;;16.30;62.50;;;;;;5048131;28;20449;-73
2021/03/03 00:42:10;;;;;;;;;;;16.40;62.50;;;;;;5042855;28;19920;-73
2021/03/03 00:44:36;;;;;;;;;;;16.40;62.50;;;;;;5042828;28;19917;-73
2021/03/03 00:47:01;;;;;;;;;;;16.30;62.50;;;;;;5047174;28;20329;-74
2021/03/03 00:49:27;;;;;;;;;;;16.30;62.50;;;;;;5038701;28;19936;-73
2021/03/03 00:51:53;;;;;;;;;;;16.30;62.50;;;;;;5042844;28;20538;-73
2021/03/03 00:54:18;;;;;;;;;;;16.30;62.50;;;;;;5040954;28;19921;-73
2021/03/03 00:56:44;;;;;;;;;;;16.30;62.50;;;;;;5022689;28;19936;-73
2021/03/03 00:59:09;;;;;;;;;;;16.30;62.50;;;;;;5053172;28;20381;-73
2021/03/03 01:01:35;;;;;;;;;;;16.30;62.50;;;;;;5029547;28;20003;-73
2021/03/03 01:04:00;;;;;;;;;;;16.30;62.50;;;;;;5046181;28;20203;-74
2021/03/03 01:06:26;;;;;;;;;;;16.30;62.50;;;;;;5047867;28;19917;-73
2021/03/03 01:08:51;;;;;;;;;;;16.30;62.50;;;;;;5043173;28;20366;-73
2021/03/03 01:11:17;;;;;;;;;;;16.30;62.50;;;;;;5028457;28;19921;-74
2021/03/03 01:13:43;;;;;;;;;;;16.30;62.60;;;;;;5043587;28;20004;-74
2021/03/03 01:16:09;;;;;;;;;;;16.30;62.50;;;;;;5029561;28;20722;-74
2021/03/03 01:18:34;;;;;;;;;;;16.30;62.60;;;;;;5028251;28;19920;-74
2021/03/03 01:21:00;;;;;;;;;;;16.30;62.50;;;;;;5044690;28;20551;-74
2021/03/03 01:23:25;;;;;;;;;;;16.30;62.50;;;;;;5045895;28;19965;-73
2021/03/03 01:25:51;;;;;;;;;;;16.30;62.60;;;;;;5029119;28;20309;-73
2021/03/03 01:28:16;;;;;;;;;;;16.30;62.50;;;;;;5043065;28;19965;-74
2021/03/03 01:30:42;;;;;;;;;;;16.30;62.60;;;;;;5045974;28;19952;-73
2021/03/03 01:33:07;;;;;;;;;;;16.30;62.60;;;;;;5046121;28;20256;-74
2021/03/03 01:35:33;;;;;;;;;;;16.30;62.60;;;;;;5029212;28;20731;-74
2021/03/03 01:37:58;;;;;;;;;;;16.30;62.60;;;;;;5042804;28;19920;-73
2021/03/03 01:40:24;;;;;;;;;;;16.30;62.60;;;;;;5028682;28;19921;-74
2021/03/03 01:42:55;;;;;;;;;;;16.30;62.60;;;;;;5029505;28;19912;-73
2021/03/03 01:45:21;;;;;;;;;;;16.30;62.60;;;;;;5043216;28;19920;-73
2021/03/03 01:47:47;;;;;;;;;;;16.30;62.70;;;;;;5031284;28;19917;-73
2021/03/03 01:50:12;;;;;;;;;;;16.30;62.70;;;;;;5047143;28;20254;-73
2021/03/03 01:52:39;;;;;;;;;;;16.30;62.60;;;;;;5024739;28;19967;-73
2021/03/03 01:55:05;;;;;;;;;;;16.30;62.60;;;;;;5027449;28;20027;-73
2021/03/03 01:57:31;;;;;;;;;;;16.30;62.60;;;;;;5047424;28;20449;-73
2021/03/03 01:59:57;;;;;;;;;;;16.30;62.60;;;;;;5029225;28;19913;-73
2021/03/03 02:02:24;;;;;;;;;;;16.30;62.60;;;;;;5044307;28;19936;-73
2021/03/03 02:04:51;;;;;;;;;;;16.30;62.60;;;;;;5030310;28;20054;-73
2021/03/03 02:07:40;;;;;;;;;;;16.30;62.70;;;;;;5045659;28;19917;-73
2021/03/03 02:10:18;;;;;;;;;;;16.30;62.70;;;;;;5006744;28;19913;-74
2021/03/03 02:12:58;;;;;;;;;;;16.30;62.70;;;;;;5043585;28;19917;-73
2021/03/03 02:15:24;;;;;;;;;;;16.30;62.70;;;;;;5044298;28;19916;-73
2021/03/03 02:17:51;;;;;;;;;;;16.30;62.70;;;;;;5037674;28;19913;-73
2021/03/03 02:20:18;;;;;;;;;;;16.30;62.70;;;;;;5044865;28;19913;-74
2021/03/03 02:22:56;;;;;;;;;;;16.30;62.70;;;;;;5030049;28;19912;-73
2021/03/03 02:25:27;;;;;;;;;;;16.30;62.70;;;;;;5048504;28;19951;-73
2021/03/03 02:27:55;;;;;;;;;;;16.30;62.70;;;;;;5048183;28;19924;-74
2021/03/03 02:30:21;;;;;;;;;;;16.20;62.70;;;;;;5050528;28;19947;-73
2021/03/03 02:32:47;;;;;;;;;;;16.30;62.70;;;;;;5031495;28;19924;-74
2021/03/03 02:35:12;;;;;;;;;;;16.30;62.70;;;;;;5049403;28;19924;-73
2021/03/03 02:37:39;;;;;;;;;;;16.30;62.70;;;;;;5033678;28;20366;-73
2021/03/03 02:40:08;;;;;;;;;;;16.30;62.70;;;;;;5028585;28;19912;-73
2021/03/03 02:42:39;;;;;;;;;;;16.20;62.80;;;;;;5033810;28;20032;-74
2021/03/03 02:45:10;;;;;;;;;;;16.30;62.80;;;;;;5034728;28;20374;-73
2021/03/03 02:47:36;;;;;;;;;;;16.30;62.80;;;;;;5054808;28;20649;-73
2021/03/03 02:50:01;;;;;;;;;;;16.30;62.80;;;;;;5032793;28;19968;-73
2021/03/03 02:52:27;;;;;;;;;;;16.30;62.80;;;;;;5046719;28;20111;-72
2021/03/03 02:54:54;;;;;;;;;;;16.20;62.80;;;;;;5020924;28;20316;-73
2021/03/03 02:57:20;;;;;;;;;;;16.20;62.80;;;;;;5040621;28;19928;-73
2021/03/03 02:59:47;;;;;;;;;;;16.30;62.80;;;;;;5030832;28;20659;-73
2021/03/03 03:02:15;;;;;;;;;;;16.30;62.80;;;;;;5048628;28;19928;-74
2021/03/03 03:04:47;;;;;;;;;;;16.20;62.80;;;;;;5045226;28;19912;-73
2021/03/03 03:07:15;;;;;;;;;;;16.20;62.80;;;;;;5031734;28;20576;-73
2021/03/03 03:09:41;;;;;;;;;;;16.30;62.80;;;;;;5046824;28;19962;-73
2021/03/03 03:12:08;;;;;;;;;;;16.20;62.80;;;;;;5045399;28;20003;-73
2021/03/03 03:14:48;;;;;;;;;;;16.20;62.80;;;;;;5039646;28;19921;-74
2021/03/03 03:17:20;;;;;;;;;;;16.20;62.80;;;;;;5053122;28;20730;-74
2021/03/03 03:19:48;;;;;;;;;;;16.20;62.90;;;;;;5046013;28;19913;-73
2021/03/03 03:22:14;;;;;;;;;;;16.20;62.80;;;;;;5026861;28;19920;-73
2021/03/03 03:24:42;;;;;;;;;;;16.30;62.80;;;;;;5049387;28;19959;-73
2021/03/03 03:27:09;;;;;;;;;;;16.20;62.80;;;;;;5044054;28;20362;-74
2021/03/03 03:29:36;;;;;;;;;;;16.20;62.90;;;;;;5029085;28;19974;-73
2021/03/03 03:32:01;;;;;;;;;;;16.30;62.90;;;;;;5029938;28;19927;-74
2021/03/03 03:34:27;;;;;;;;;;;16.20;62.90;;;;;;5047902;28;19917;-73
2021/03/03 03:36:53;;;;;;;;;;;16.20;62.80;;;;;;5046003;28;19955;-73
2021/03/03 03:39:23;;;;;;;;;;;16.20;62.90;;;;;;5043612;28;19920;-74
2021/03/03 03:41:54;;;;;;;;;;;16.20;62.90;;;;;;5032110;28;19913;-73
2021/03/03 03:44:20;;;;;;;;;;;16.20;62.90;;;;;;5033211;28;19914;-73
2021/03/03 03:46:58;;;;;;;;;;;16.20;62.90;;;;;;5049971;28;19917;-73
2021/03/03 03:49:24;;;;;;;;;;;16.20;62.90;;;;;;5026673;28;19913;-73
2021/03/03 03:51:50;;;;;;;;;;;16.20;62.90;;;;;;5020872;28;19916;-73
2021/03/03 03:54:15;;;;;;;;;;;16.20;62.90;;;;;;5047979;28;19920;-73
2021/03/03 03:56:43;;;;;;;;;;;16.20;62.90;;;;;;5030446;28;19942;-73
2021/03/03 03:59:08;;;;;;;;;;;16.20;62.90;;;;;;5029473;28;19912;-73
2021/03/03 04:01:34;;;;;;;;;;;16.20;62.90;;;;;;5028189;28;20337;-73
2021/03/03 04:03:59;;;;;;;;;;;16.20;62.90;;;;;;5029828;28;19912;-73
2021/03/03 04:06:25;;;;;;;;;;;16.20;62.90;;;;;;5031382;28;19913;-73
2021/03/03 04:08:51;;;;;;;;;;;16.20;62.90;;;;;;5049020;28;20001;-73
2021/03/03 04:11:16;;;;;;;;;;;16.20;62.90;;;;;;5030496;28;19913;-73
2021/03/03 04:13:44;;;;;;;;;;;16.20;62.90;;;;;;5041020;28;19928;-73
2021/03/03 04:16:10;;;;;;;;;;;16.20;62.90;;;;;;5031277;28;20298;-73
2021/03/03 04:18:40;;;;;;;;;;;16.20;62.90;;;;;;5041409;28;19913;-73
2021/03/03 04:21:11;;;;;;;;;;;16.20;62.90;;;;;;5047939;28;20004;-73
2021/03/03 04:23:36;;;;;;;;;;;16.10;63.00;;;;;;5047566;28;19913;-73
2021/03/03 04:26:14;;;;;;;;;;;16.20;63.00;;;;;;5030744;28;19921;-73
2021/03/03 04:28:47;;;;;;;;;;;16.20;63.00;;;;;;5029094;28;20408;-73
2021/03/03 04:31:18;;;;;;;;;;;16.20;63.00;;;;;;5027357;28;20020;-73
2021/03/03 04:33:43;;;;;;;;;;;16.10;63.00;;;;;;5031145;28;20011;-73
2021/03/03 04:36:09;;;;;;;;;;;16.20;63.00;;;;;;5043975;28;20027;-73
2021/03/03 04:38:34;;;;;;;;;;;16.20;63.00;;;;;;5028749;28;20007;-73
2021/03/03 04:41:05;;;;;;;;;;;16.20;63.00;;;;;;5028944;28;20003;-73
2021/03/03 04:43:30;;;;;;;;;;;16.20;63.00;;;;;;5040385;28;19920;-73
2021/03/03 04:45:56;;;;;;;;;;;16.10;63.00;;;;;;5026660;28;19917;-72
2021/03/03 04:48:21;;;;;;;;;;;16.20;63.00;;;;;;5049044;28;19940;-73
2021/03/03 04:50:47;;;;;;;;;;;16.10;63.00;;;;;;5047015;28;19912;-73
2021/03/03 04:53:12;;;;;;;;;;;16.20;63.00;;;;;;5031290;28;20019;-73
2021/03/03 04:55:38;;;;;;;;;;;16.20;63.00;;;;;;5047914;28;19923;-73
2021/03/03 04:58:03;;;;;;;;;;;16.10;63.00;;;;;;5044022;28;20338;-73
2021/03/03 05:00:30;;;;;;;;;;;16.20;63.00;;;;;;5043681;28;20389;-74
2021/03/03 05:02:55;;;;;;;;;;;16.10;63.00;;;;;;5026545;28;19909;-73
2021/03/03 05:05:21;;;;;;;;;;;16.10;63.00;;;;;;5047682;28;19917;-73
2021/03/03 05:07:46;;;;;;;;;;;16.10;63.00;;;;;;5044172;28;20262;-74
2021/03/03 05:10:12;;;;;;;;;;;16.10;63.00;;;;;;5044659;28;19913;-73
2021/03/03 05:12:38;;;;;;;;;;;16.10;63.00;;;;;;5019329;28;20434;-74
2021/03/03 05:15:04;;;;;;;;;;;16.20;63.00;;;;;;5028743;28;19917;-74
2021/03/03 05:17:29;;;;;;;;;;;16.10;63.00;;;;;;5045762;28;19913;-74
2021/03/03 05:19:55;;;;;;;;;;;16.10;63.00;;;;;;5048273;28;20513;-74
2021/03/03 05:22:20;;;;;;;;;;;16.10;63.00;;;;;;5039552;28;19916;-74
2021/03/03 05:24:46;;;;;;;;;;;16.10;63.00;;;;;;5042598;28;19913;-73
2021/03/03 05:27:11;;;;;;;;;;;16.10;63.10;;;;;;5044251;28;19931;-74
2021/03/03 05:29:37;;;;;;;;;;;16.10;63.00;;;;;;5050207;28;20377;-74
2021/03/03 05:32:02;;;;;;;;;;;16.10;63.00;;;;;;5042562;28;19917;-74
2021/03/03 05:34:28;;;;;;;;;;;16.10;63.00;;;;;;5044837;28;19921;-74
2021/03/03 05:36:54;;;;;;;;;;;16.10;63.00;;;;;;5031088;28;20377;-75
2021/03/03 05:39:19;;;;;;;;;;;16.10;63.00;;;;;;5030855;28;19912;-73
2021/03/03 05:41:45;;;;;;;;;;;16.10;63.00;;;;;;5048609;28;20444;-74
2021/03/03 05:44:10;;;;;;;;;;;16.10;63.10;;;;;;5044024;28;19912;-74
2021/03/03 05:46:36;;;;;;;;;;;16.10;63.00;;;;;;5029264;28;19912;-73
2021/03/03 05:49:03;;;;;;;;;;;16.10;63.00;;;;;;5029784;28;19921;-74
2021/03/03 05:51:30;;;;;;;;;;;16.10;63.00;;;;;;5048275;28;19913;-74
2021/03/03 05:53:56;;;;;;;;;;;16.10;63.00;;;;;;5034640;28;19963;-74
2021/03/03 05:56:22;;;;;;;;;;;16.10;63.00;;;;;;5027448;28;19955;-73
2021/03/03 05:58:48;;;;;;;;;;;16.10;63.00;;;;;;5025374;28;19982;-74
2021/03/03 06:01:14;;;;;;;;;;;16.10;63.00;;;;;;5027957;28;19917;-73
2021/03/03 06:03:40;;;;;;;;;;;16.20;63.00;;;;;;5051027;28;19927;-74
2021/03/03 06:06:05;;;;;;;;;;;16.10;63.00;;;;;;5034027;28;20027;-74
2021/03/03 06:08:31;;;;;;;;;;;16.10;63.00;;;;;;5052775;28;19960;-73
2021/03/03 06:10:57;;;;;;;;;;;16.20;63.00;;;;;;5050118;28;19912;-73
2021/03/03 06:13:23;;;;;;;;;;;16.10;63.00;;;;;;5049206;28;19912;-74
2021/03/03 06:15:49;;;;;;;;;;;16.10;63.00;;;;;;5043458;28;19987;-73
2021/03/03 06:18:15;;;;;;;;;;;16.10;63.00;;;;;;5050527;28;20309;-73
2021/03/03 06:20:44;;;;;;;;;;;16.20;63.00;;;;;;5027964;28;20421;-74
2021/03/03 06:23:22;;;;;;;;;;;16.20;62.90;;;;;;5052498;28;19919;-74
2021/03/03 06:26:08;;;;;;;;;;;16.20;62.90;;;;;;5050854;28;19920;-74
2021/03/03 06:28:34;;;;;;;;;;;16.20;62.90;;;;;;5044988;28;20558;-74
2021/03/03 06:31:01;;;;;;;;;;;16.20;62.80;;;;;;5049535;28;19927;-74
2021/03/03 06:33:29;;;;;;;;;;;16.20;62.80;;;;;;5036782;28;19925;-73
2021/03/03 06:35:55;;;;;;;;;;;16.20;62.80;;;;;;5048475;28;20008;-74
2021/03/03 06:38:27;;;;;;;;;;;16.20;62.80;;;;;;5033331;28;19995;-73
2021/03/03 06:40:58;;;;;;;;;;;16.20;62.80;;;;;;5031793;28;19912;-74
2021/03/03 06:43:30;;;;;;;;;;;16.20;62.80;;;;;;5038146;28;19913;-73
2021/03/03 06:45:56;;;;;;;;;;;16.20;62.80;;;;;;5026110;28;19943;-74
2021/03/03 06:48:38;;;;;;;;;;;16.20;62.80;;;;;;5051611;28;19970;-74
2021/03/03 06:51:22;;;;;;;;;;;16.20;62.70;;;;;;5051534;28;19955;-74
2021/03/03 06:53:47;;;;;;;;;;;16.20;62.70;;;;;;5051485;28;20538;-74
2021/03/03 06:56:13;;;;;;;;;;;16.20;62.70;;;;;;5032949;28;20014;-74
2021/03/03 06:58:38;;;;;;;;;;;16.20;62.70;;;;;;5030037;28;19978;-74
2021/03/03 07:01:04;;;;;;;;;;;16.20;62.60;;;;;;5031035;28;20007;-74
2021/03/03 07:03:33;;;;;;;;;;;16.30;62.60;;;;;;5041281;28;19921;-74
2021/03/03 07:05:59;;;;;;;;;;;16.30;62.60;;;;;;5047086;28;19912;-73
2021/03/03 07:08:29;;;;;;;;;;;16.30;62.50;;;;;;5033681;28;20027;-74
2021/03/03 07:10:55;;;;;;;;;;;16.30;62.50;;;;;;5046918;28;19913;-74
2021/03/03 07:13:39;;;;;;;;;;;16.30;62.50;;;;;;5032041;28;19967;-73
2021/03/03 07:16:06;;;;;;;;;;;16.30;62.60;;;;;;5029243;28;19995;-73
2021/03/03 07:18:35;;;;;;;;;;;16.30;62.50;;;;;;5029716;28;20211;-74
2021/03/03 07:21:01;;;;;;;;;;;16.30;62.50;;;;;;5031969;28;19923;-76
2021/03/03 07:23:42;;;;;;;;;;;16.30;62.50;;;;;;5045884;28;19913;-76
2021/03/03 07:26:08;;;;;;;;;;;16.30;62.50;;;;;;5030303;28;19913;-73
2021/03/03 07:28:35;;;;;;;;;;;16.30;62.40;;;;;;5024987;28;19928;-73
2021/03/03 07:31:00;;;;;;;;;;;16.30;62.40;;;;;;5041380;28;19913;-74
2021/03/03 07:33:26;;;;;;;;;;;16.30;62.40;;;;;;5043662;28;19923;-74
2021/03/03 07:35:51;;;;;;;;;;;16.30;62.30;;;;;;5044588;28;19921;-73
2021/03/03 07:38:18;;;;;;;;;;;16.30;62.30;;;;;;5035632;28;19921;-75
2021/03/03 07:40:44;;;;;;;;;;;16.30;62.30;;;;;;5051237;28;20015;-74
2021/03/03 07:43:10;;;;;;;;;;;16.30;62.30;;;;;;5025904;28;20007;-74
2021/03/03 07:45:39;;;;;;;;;;;16.30;62.20;;;;;;5025814;28;20044;-75
2021/03/03 07:48:06;;;;;;;;;;;16.30;62.20;;;;;;5040349;28;19913;-73
2021/03/03 07:50:32;;;;;;;;;;;16.30;62.20;;;;;;5042446;28;20299;-75
2021/03/03 07:52:57;;;;;;;;;;;16.30;62.10;;;;;;5043055;28;19975;-75
2021/03/03 07:55:23;;;;;;;;;;;16.30;62.10;;;;;;5044773;28;20373;-75
2021/03/03 07:57:50;;;;;;;;;;;16.40;62.10;;;;;;5026178;28;19913;-75
2021/03/03 08:00:26;;;;;;;;;;;16.40;62.00;;;;;;5042262;28;20362;-75
2021/03/03 08:02:52;;;;;;;;;;;16.40;62.00;;;;;;5036814;28;19920;-75
2021/03/03 08:05:27;;;;;;;;;;;16.40;61.90;;;;;;5044985;28;19912;-75
2021/03/03 08:08:08;;;;;;;;;;;16.40;61.90;;;;;;5033301;28;19924;-75
2021/03/03 08:10:38;;;;;;;;;;;16.50;61.80;;;;;;5045762;28;20435;-75
2021/03/03 08:13:05;;;;;;;;;;;16.50;61.70;;;;;;5043017;28;19932;-75
2021/03/03 08:15:48;;;;;;;;;;;16.50;61.70;;;;;;5027225;28;20027;-75
2021/03/03 08:18:14;;;;;;;;;;;16.50;61.70;;;;;;5041150;28;20406;-75
2021/03/03 08:20:44;;;;;;;;;;;16.50;61.70;;;;;;5028216;28;20011;-75
2021/03/03 08:23:10;;;;;;;;;;;16.50;61.70;;;;;;5036584;28;19953;-75
2021/03/03 08:25:48;;;;;;;;;;;16.50;61.60;;;;;;5036329;28;19948;-75
2021/03/03 08:28:49;;;;;;;;;;;16.50;61.60;;;;;;5041572;28;19999;-75
2021/03/03 08:31:15;;;;;;;;;;;16.50;61.60;;;;;;4975889;28;19937;-75
2021/03/03 08:33:42;;;;;;;;;;;16.50;61.60;;;;;;5021734;28;20506;-75
2021/03/03 08:36:30;;;;;;;;;;;16.50;61.60;;;;;;5040759;28;21657;-75
2021/03/03 08:38:55;;;;;;;;;;;16.50;61.60;;;;;;5019029;28;20008;-79
2021/03/03 08:41:26;;;;;;;;;;;16.50;61.50;;;;;;5028518;28;19952;-79
2021/03/03 08:44:02;;;;;;;;;;;16.60;61.50;;;;;;5060654;28;20329;-79
2021/03/03 08:46:27;;;;;;;;;;;16.60;61.40;;;;;;5052845;28;20416;-80
2021/03/03 08:48:59;;;;;;;;;;;16.60;61.40;;;;;;5031435;28;19913;-79
2021/03/03 08:51:28;;;;;;;;;;;16.60;61.30;;;;;;5040894;28;19910;-79
2021/03/03 08:53:54;;;;;;;;;;;16.60;61.30;;;;;;5033943;28;19927;-79
2021/03/03 08:56:35;;;;;;;;;;;16.60;61.30;;;;;;5053450;28;20314;-79
2021/03/03 08:59:25;;;;;;;;;;;16.60;61.30;;;;;;5020491;28;19913;-79
2021/03/03 09:01:52;;;;;;;;;;;16.60;61.30;;;;;;5020797;28;20303;-80
2021/03/03 09:04:18;;;;;;;;;;;16.60;61.20;;;;;;5028526;28;19913;-78
2021/03/03 09:06:50;;;;;;;;;;;16.60;61.20;;;;;;5044306;28;19912;-78
2021/03/03 09:09:16;;;;;;;;;;;16.60;61.20;;;;;;5063807;28;20334;-79
2021/03/03 09:11:42;;;;;;;;;;;16.70;61.10;;;;;;5032241;28;19963;-80
2021/03/03 09:14:07;;;;;;;;;;;16.70;61.10;;;;;;5042507;28;20420;-79
2021/03/03 09:16:33;;;;;;;;;;;16.70;61.10;;;;;;5024617;28;19913;-79
2021/03/03 09:19:10;;;;;;;;;;;16.70;61.10;;;;;;5032983;28;19920;-80
2021/03/03 09:21:35;;;;;;;;;;;16.80;61.00;;;;;;5034772;28;20029;-79
2021/03/03 09:24:11;;;;;;;;;;;16.80;60.90;;;;;;5051045;28;20008;-80
2021/03/03 09:27:00;;;;;;;;;;;16.80;60.90;;;;;;5028678;28;19921;-80
2021/03/03 09:29:40;;;;;;;;;;;16.80;60.80;;;;;;5025508;28;20356;-79
2021/03/03 09:32:13;;;;;;;;;;;16.80;60.80;;;;;;5041764;28;19968;-80
2021/03/03 09:34:43;;;;;;;;;;;16.80;60.70;;;;;;5040763;28;20284;-78
2021/03/03 09:37:09;;;;;;;;;;;16.80;60.70;;;;;;5018879;28;19912;-80
2021/03/03 09:39:34;;;;;;;;;;;16.80;60.70;;;;;;5032336;28;19916;-79
2021/03/03 09:42:01;;;;;;;;;;;16.80;60.60;;;;;;5044545;28;20333;-80
2021/03/03 09:44:42;;;;;;;;;;;16.80;60.60;;;;;;5017559;28;19920;-80
2021/03/03 09:47:07;;;;;;;;;;;16.80;60.60;;;;;;5014800;28;20031;-79
2021/03/03 09:49:35;;;;;;;;;;;16.80;60.60;;;;;;5035258;28;20007;-80
2021/03/03 09:52:03;;;;;;;;;;;16.80;60.50;;;;;;5044260;28;20378;-79
2021/03/03 09:54:37;;;;;;;;;;;16.80;60.60;;;;;;5031810;28;19916;-78
2021/03/03 09:57:02;;;;;;;;;;;16.80;60.50;;;;;;5047498;28;20037;-78
2021/03/03 09:59:29;;;;;;;;;;;16.80;60.50;;;;;;5031459;28;20433;-79
2021/03/03 10:01:57;;;;;;;;;;;16.80;60.40;;;;;;5050728;28;19967;-79
2021/03/03 10:04:22;;;;;;;;;;;16.90;60.30;;;;;;5030690;28;19924;-79
2021/03/03 10:06:51;;;;;;;;;;;16.90;60.30;;;;;;5033081;28;19912;-79
2021/03/03 10:09:17;;;;;;;;;;;16.90;60.30;;;;;;5032677;28;19913;-77
2021/03/03 10:11:42;;;;;;;;;;;16.90;60.30;;;;;;5050389;28;19936;-81
2021/03/03 10:14:18;;;;;;;;;;;16.90;60.20;;;;;;5040523;28;19913;-78
2021/03/03 10:17:04;;;;;;;;;;;16.90;60.20;;;;;;5047673;28;20373;-77
2021/03/03 10:19:29;;;;;;;;;;;16.90;60.20;;;;;;5040045;28;20007;-78
2021/03/03 10:21:55;;;;;;;;;;;16.90;60.10;;;;;;5030431;28;20462;-77
2021/03/03 10:24:21;;;;;;;;;;;17.00;60.10;;;;;;5040371;28;19909;-77
2021/03/03 10:26:47;;;;;;;;;;;17.00;60.10;;;;;;5034048;28;19991;-77
2021/03/03 10:29:29;;;;;;;;;;;17.00;60.00;;;;;;5045049;28;20507;-78
2021/03/03 10:32:11;;;;;;;;;;;17.00;60.00;;;;;;5032167;28;19924;-77
2021/03/03 10:34:38;;;;;;;;;;;17.00;60.00;;;;;;5056688;28;19921;-78
2021/03/03 10:37:03;;;;;;;;;;;17.00;60.00;;;;;;5033869;28;19915;-79
2021/03/03 10:39:30;;;;;;;;;;;17.00;60.00;;;;;;5048807;28;19956;-77
2021/03/03 10:41:59;;;;;;;;;;;17.00;59.90;;;;;;5043613;28;19913;-77
2021/03/03 10:44:36;;;;;;;;;;;17.10;59.90;;;;;;5043975;28;19913;-77
2021/03/03 10:47:01;;;;;;;;;;;17.00;59.90;;;;;;5031707;28;19967;-78
2021/03/03 10:49:27;;;;;;;;;;;17.00;59.90;;;;;;5050388;28;19912;-76
2021/03/03 10:51:53;;;;;;;;;;;17.10;59.80;;;;;;5037870;28;19909;-77
2021/03/03 10:54:29;;;;;;;;;;;17.10;59.80;;;;;;5034517;28;20350;-77
2021/03/03 10:57:03;;;;;;;;;;;17.10;59.80;;;;;;5049031;28;19921;-77
2021/03/03 10:59:28;;;;;;;;;;;17.10;59.80;;;;;;5036934;28;19913;-75
2021/03/03 11:01:59;;;;;;;;;;;17.10;59.80;;;;;;5043750;28;20378;-75
2021/03/03 11:04:37;;;;;;;;;;;17.10;59.70;;;;;;5033143;28;19917;-75
2021/03/03 11:07:02;;;;;;;;;;;17.10;59.70;;;;;;5046838;28;20000;-75
2021/03/03 11:09:28;;;;;;;;;;;17.10;59.70;;;;;;5050262;28;19917;-75
2021/03/03 11:11:55;;;;;;;;;;;17.10;59.70;;;;;;5043768;28;19965;-75
2021/03/03 11:14:21;;;;;;;;;;;17.10;59.60;;;;;;5043776;28;20008;-75
2021/03/03 11:16:47;;;;;;;;;;;17.10;59.60;;;;;;5046443;28;19921;-75
2021/03/03 11:19:13;;;;;;;;;;;17.10;59.50;;;;;;5031035;28;19924;-75
2021/03/03 11:21:38;;;;;;;;;;;17.10;59.50;;;;;;5046968;28;19920;-74
2021/03/03 11:24:04;;;;;;;;;;;17.20;59.50;;;;;;5026935;28;20818;-75
2021/03/03 11:26:30;;;;;;;;;;;17.20;59.50;;;;;;5030482;28;19923;-74
2021/03/03 11:28:55;;;;;;;;;;;17.20;59.50;;;;;;5044166;28;19929;-75
2021/03/03 11:31:21;;;;;;;;;;;17.10;59.50;;;;;;5027770;28;19917;-74
2021/03/03 11:33:47;;;;;;;;;;;17.20;59.40;;;;;;5038575;28;19916;-75
2021/03/03 11:36:14;;;;;;;;;;;17.20;59.40;;;;;;5043677;28;19917;-74
2021/03/03 11:38:40;;;;;;;;;;;17.20;59.40;;;;;;5034067;28;19916;-75
2021/03/03 11:41:05;;;;;;;;;;;17.10;59.40;;;;;;5036917;28;20012;-75
2021/03/03 11:43:31;;;;;;;;;;;17.20;59.40;;;;;;5044459;28;19917;-73
2021/03/03 11:45:57;;;;;;;;;;;17.20;59.40;;;;;;5042161;28;19920;-75
2021/03/03 11:48:23;;;;;;;;;;;17.20;59.30;;;;;;5040551;28;20320;-75
2021/03/03 11:50:49;;;;;;;;;;;17.20;59.40;;;;;;5033814;28;20008;-74
2021/03/03 11:53:14;;;;;;;;;;;17.20;59.30;;;;;;5040481;28;19963;-74
2021/03/03 11:55:40;;;;;;;;;;;17.20;59.30;;;;;;5032649;28;20455;-74
2021/03/03 11:58:05;;;;;;;;;;;17.20;59.30;;;;;;5026626;28;20347;-75
2021/03/03 12:00:31;;;;;;;;;;;17.30;59.30;;;;;;5043525;28;19919;-75
2021/03/03 12:02:57;;;;;;;;;;;17.20;59.30;;;;;;5030858;28;19919;-74
2021/03/03 12:05:23;;;;;;;;;;;17.20;59.30;;;;;;5058404;28;19916;-75
2021/03/03 12:07:49;;;;;;;;;;;17.20;59.30;;;;;;5048172;28;19913;-75
2021/03/03 12:10:15;;;;;;;;;;;17.20;59.30;;;;;;5046015;28;19913;-75
2021/03/03 12:12:40;;;;;;;;;;;17.30;59.30;;;;;;5026948;28;19982;-75
2021/03/03 12:15:07;;;;;;;;;;;17.30;59.30;;;;;;5044953;28;20301;-75
2021/03/03 12:17:32;;;;;;;;;;;17.20;59.30;;;;;;5024210;28;20728;-74
2021/03/03 12:19:58;;;;;;;;;;;17.20;59.20;;;;;;5022631;28;19913;-75
2021/03/03 12:22:23;;;;;;;;;;;17.20;59.20;;;;;;5023948;28;19917;-74
2021/03/03 12:24:49;;;;;;;;;;;17.30;59.20;;;;;;5046577;28;20433;-75
2021/03/03 12:27:15;;;;;;;;;;;17.20;59.30;;;;;;5029217;28;20489;-75
2021/03/03 12:29:41;;;;;;;;;;;17.20;59.30;;;;;;5040466;28;20469;-75
2021/03/03 12:32:06;;;;;;;;;;;17.20;59.20;;;;;;5041475;28;19944;-75
2021/03/03 12:34:32;;;;;;;;;;;17.20;59.20;;;;;;5031530;28;19927;-74
2021/03/03 12:36:57;;;;;;;;;;;17.20;59.30;;;;;;5023717;28;20000;-75
2021/03/03 12:39:23;;;;;;;;;;;17.20;59.30;;;;;;5046858;28;19916;-74
2021/03/03 12:41:49;;;;;;;;;;;17.20;59.30;;;;;;5043819;28;21219;-75
2021/03/03 12:44:14;;;;;;;;;;;17.30;59.20;;;;;;5046874;28;19962;-75
2021/03/03 12:46:40;;;;;;;;;;;17.20;59.20;;;;;;5033535;28;19912;-74
2021/03/03 12:49:05;;;;;;;;;;;17.30;59.20;;;;;;5049865;28;19921;-75
2021/03/03 12:51:31;;;;;;;;;;;17.30;59.20;;;;;;5047247;28;20380;-75
2021/03/03 12:53:56;;;;;;;;;;;17.20;59.20;;;;;;5043260;28;19923;-73
2021/03/03 12:56:22;;;;;;;;;;;17.30;59.30;;;;;;5036772;28;19920;-75
2021/03/03 12:58:48;;;;;;;;;;;17.30;59.30;;;;;;5026519;28;19920;-75
2021/03/03 13:01:13;;;;;;;;;;;17.20;59.30;;;;;;5039825;28;19920;-75
2021/03/03 13:03:43;;;;;;;;;;;17.20;59.30;;;;;;5043255;28;19940;-74
2021/03/03 13:06:08;;;;;;;;;;;17.20;59.20;;;;;;5044786;28;19920;-75
2021/03/03 13:08:34;;;;;;;;;;;17.30;59.20;;;;;;5028382;28;20270;-75
2021/03/03 13:10:59;;;;;;;;;;;17.30;59.20;;;;;;5029108;28;19924;-75
2021/03/03 13:13:25;;;;;;;;;;;17.20;59.20;;;;;;5043839;28;20381;-75
2021/03/03 13:15:50;;;;;;;;;;;17.30;59.20;;;;;;5028367;28;19927;-74
2021/03/03 13:18:16;;;;;;;;;;;17.30;59.20;;;;;;5022152;28;19921;-74
2021/03/03 13:20:42;;;;;;;;;;;17.30;59.20;;;;;;5030619;28;19916;-75
2021/03/03 13:23:07;;;;;;;;;;;17.20;59.20;;;;;;5045729;28;20052;-74
2021/03/03 13:25:33;;;;;;;;;;;17.20;59.30;;;;;;5048575;28;19913;-75
2021/03/03 13:27:58;;;;;;;;;;;17.20;59.30;;;;;;5042109;28;19960;-75
2021/03/03 13:30:24;;;;;;;;;;;17.20;59.30;;;;;;5042196;28;19936;-75
2021/03/03 13:32:49;;;;;;;;;;;17.20;59.30;;;;;;5042243;28;19943;-75
2021/03/03 13:35:15;;;;;;;;;;;17.20;59.30;;;;;;5029569;28;20593;-74
2021/03/03 13:37:41;;;;;;;;;;;17.20;59.30;;;;;;5041457;28;20410;-74
2021/03/03 13:40:07;;;;;;;;;;;17.20;59.30;;;;;;5042637;28;19945;-75
2021/03/03 13:42:33;;;;;;;;;;;17.20;59.20;;;;;;5026826;28;20494;-75
2021/03/03 13:44:59;;;;;;;;;;;17.30;59.30;;;;;;5040397;28;19920;-74
2021/03/03 13:47:24;;;;;;;;;;;17.30;59.20;;;;;;5027969;28;19928;-74
2021/03/03 13:49:51;;;;;;;;;;;17.20;59.20;;;;;;5025054;28;19913;-75
2021/03/03 13:52:16;;;;;;;;;;;17.20;59.30;;;;;;5042106;28;20008;-75
2021/03/03 13:54:42;;;;;;;;;;;17.30;59.30;;;;;;5038411;28;20019;-74
2021/03/03 13:57:08;;;;;;;;;;;17.30;59.30;;;;;;5046016;28;20282;-75
2021/03/03 13:59:34;;;;;;;;;;;17.20;59.30;;;;;;5020312;28;19913;-75
2021/03/03 14:01:59;;;;;;;;;;;17.20;59.40;;;;;;5023081;28;20289;-75
2021/03/03 14:04:26;;;;;;;;;;;17.20;59.40;;;;;;5027051;28;19913;-74
2021/03/03 14:06:51;;;;;;;;;;;17.20;59.40;;;;;;5046000;28;19924;-75
2021/03/03 14:09:17;;;;;;;;;;;17.10;59.40;;;;;;5030094;28;19912;-74
2021/03/03 14:11:42;;;;;;;;;;;17.20;59.50;;;;;;5039053;28;19917;-75
2021/03/03 14:14:08;;;;;;;;;;;17.20;59.50;;;;;;5024768;28;20058;-74
2021/03/03 14:16:34;;;;;;;;;;;17.20;59.50;;;;;;5044852;28;20042;-75
2021/03/03 14:18:59;;;;;;;;;;;17.10;59.50;;;;;;5034954;28;20390;-74